sensor_id;sensor_type;location;lat;lon;timestamp;temperature;humidity
8408;DHT22;4241;48.452;9.216;2022-07-06T00:02:21;16.30;99.90
8408;DHT22;4241;48.452;9.216;2022-07-06T00:04:48;16.40;99.90
8408;DHT22;4241;48.452;9.216;2022-07-06T00:07:14;16.40;99.90
8408;DHT22;4241;48.452;9.216;2022-07-06T00:09:43;16.50;99.90
8408;DHT22;4241;48.452;9.216;2022-07-06T00:12:10;16.40;99.90
8408;DHT22;4241;48.452;9.216;2022-07-06T00:14:36;16.50;99.90
8408;DHT22;4241;48.452;9.216;2022-07-06T00:17:06;16.60;99.90
8408;DHT22;4241;48.452;9.216;2022-07-06T00:19:33;16.60;99.90
8408;DHT22;4241;48.452;9.216;2022-07-06T00:22:00;16.50;99.90
8408;DHT22;4241;48.452;9.216;2022-07-06T00:24:27;16.40;99.90
8408;DHT22;4241;48.452;9.216;2022-07-06T00:26:55;16.60;99.90
8408;DHT22;4241;48.452;9.216;2022-07-06T00:29:22;16.70;99.90
8408;DHT22;4241;48.452;9.216;2022-07-06T00:31:49;16.70;99.90
8408;DHT22;4241;48.452;9.216;2022-07-06T00:34:16;16.70;99.90
8408;DHT22;4241;48.452;9.216;2022-07-06T00:36:42;16.70;99.90
8408;DHT22;4241;48.452;9.216;2022-07-06T00:39:09;16.60;99.90
8408;DHT22;4241;48.452;9.216;2022-07-06T00:41:36;16.70;99.90
8408;DHT22;4241;48.452;9.216;2022-07-06T00:44:07;16.60;99.90
8408;DHT22;4241;48.452;9.216;2022-07-06T00:46:35;16.40;99.90
8408;DHT22;4241;48.452;9.216;2022-07-06T00:49:02;16.50;99.90
8408;DHT22;4241;48.452;9.216;2022-07-06T00:51:31;16.40;99.90
8408;DHT22;4241;48.452;9.216;2022-07-06T00:53:59;16.00;99.90
8408;DHT22;4241;48.452;9.216;2022-07-06T00:56:26;16.20;99.90
8408;DHT22;4241;48.452;9.216;2022-07-06T00:58:55;16.20;99.90
8408;DHT22;4241;48.452;9.216;2022-07-06T01:01:23;16.40;99.90
8408;DHT22;4241;48.452;9.216;2022-07-06T01:03:50;16.20;99.90
8408;DHT22;4241;48.452;9.216;2022-07-06T01:06:17;15.80;99.90
8408;DHT22;4241;48.452;9.216;2022-07-06T01:08:44;15.80;99.90
8408;DHT22;4241;48.452;9.216;2022-07-06T01:11:11;15.60;99.90
8408;DHT22;4241;48.452;9.216;2022-07-06T01:13:38;15.50;99.90
8408;DHT22;4241;48.452;9.216;2022-07-06T01:16:06;15.60;99.90
8408;DHT22;4241;48.452;9.216;2022-07-06T01:18:35;15.50;99.90
8408;DHT22;4241;48.452;9.216;2022-07-06T01:21:11;15.20;99.90
8408;DHT22;4241;48.452;9.216;2022-07-06T01:23:42;15.20;99.90
8408;DHT22;4241;48.452;9.216;2022-07-06T01:26:11;15.50;99.90
8408;DHT22;4241;48.452;9.216;2022-07-06T01:28:38;15.60;99.90
8408;DHT22;4241;48.452;9.216;2022-07-06T01:31:10;15.40;99.90
8408;DHT22;4241;48.452;9.216;2022-07-06T01:33:41;15.30;99.90
8408;DHT22;4241;48.452;9.216;2022-07-06T01:36:09;15.20;99.90
8408;DHT22;4241;48.452;9.216;2022-07-06T01:38:44;14.90;99.90
8408;DHT22;4241;48.452;9.216;2022-07-06T01:41:11;15.10;99.90
8408;DHT22;4241;48.452;9.216;2022-07-06T01:43:38;15.10;99.90
8408;DHT22;4241;48.452;9.216;2022-07-06T01:46:05;14.70;99.90
8408;DHT22;4241;48.452;9.216;2022-07-06T01:48:32;14.70;99.90
8408;DHT22;4241;48.452;9.216;2022-07-06T01:50:59;14.60;99.90
8408;DHT22;4241;48.452;9.216;2022-07-06T01:53:28;14.60;99.90
8408;DHT22;4241;48.452;9.216;2022-07-06T01:55:55;14.60;99.90
8408;DHT22;4241;48.452;9.216;2022-07-06T01:58:21;14.70;99.90
8408;DHT22;4241;48.452;9.216;2022-07-06T02:00:49;14.60;99.90
8408;DHT22;4241;48.452;9.216;2022-07-06T02:03:16;14.60;99.90
8408;DHT22;4241;48.452;9.216;2022-07-06T02:05:43;14.60;99.90
8408;DHT22;4241;48.452;9.216;2022-07-06T02:08:09;14.70;99.90
8408;DHT22;4241;48.452;9.216;2022-07-06T02:10:38;14.60;99.90
8408;DHT22;4241;48.452;9.216;2022-07-06T02:13:05;14.10;99.90
8408;DHT22;4241;48.452;9.216;2022-07-06T02:15:32;14.10;99.90
8408;DHT22;4241;48.452;9.216;2022-07-06T02:17:59;14.20;99.90
8408;DHT22;4241;48.452;9.216;2022-07-06T02:20:26;14.20;99.90
8408;DHT22;4241;48.452;9.216;2022-07-06T02:22:53;14.30;99.90
8408;DHT22;4241;48.452;9.216;2022-07-06T02:25:20;14.40;99.90
8408;DHT22;4241;48.452;9.216;2022-07-06T02:27:48;14.20;99.90
8408;DHT22;4241;48.452;9.216;2022-07-06T02:30:15;14.40;99.90
8408;DHT22;4241;48.452;9.216;2022-07-06T02:32:42;14.30;99.90
8408;DHT22;4241;48.452;9.216;2022-07-06T02:35:09;14.50;99.90
8408;DHT22;4241;48.452;9.216;2022-07-06T02:37:36;14.70;99.90
8408;DHT22;4241;48.452;9.216;2022-07-06T02:40:04;14.50;99.90
8408;DHT22;4241;48.452;9.216;2022-07-06T02:42:31;14.30;99.90
8408;DHT22;4241;48.452;9.216;2022-07-06T02:44:59;14.20;99.90
8408;DHT22;4241;48.452;9.216;2022-07-06T02:47:26;14.20;99.90
8408;DHT22;4241;48.452;9.216;2022-07-06T02:49:53;14.20;99.90
8408;DHT22;4241;48.452;9.216;2022-07-06T02:52:20;14.40;99.90
8408;DHT22;4241;48.452;9.216;2022-07-06T02:54:47;14.40;99.90
8408;DHT22;4241;48.452;9.216;2022-07-06T02:57:14;14.10;99.90
8408;DHT22;4241;48.452;9.216;2022-07-06T02:59:41;13.80;99.90
8408;DHT22;4241;48.452;9.216;2022-07-06T03:02:09;14.00;99.90
8408;DHT22;4241;48.452;9.216;2022-07-06T03:04:36;14.10;99.90
8408;DHT22;4241;48.452;9.216;2022-07-06T03:07:03;14.30;99.90
8408;DHT22;4241;48.452;9.216;2022-07-06T03:09:30;14.30;99.90
8408;DHT22;4241;48.452;9.216;2022-07-06T03:11:57;14.60;99.90
8408;DHT22;4241;48.452;9.216;2022-07-06T03:14:24;14.20;99.90
8408;DHT22;4241;48.452;9.216;2022-07-06T03:16:52;14.20;99.90
8408;DHT22;4241;48.452;9.216;2022-07-06T03:19:21;14.20;99.90
8408;DHT22;4241;48.452;9.216;2022-07-06T03:21:48;14.30;99.90
8408;DHT22;4241;48.452;9.216;2022-07-06T03:24:14;14.50;99.90
8408;DHT22;4241;48.452;9.216;2022-07-06T03:26:41;14.60;99.90
8408;DHT22;4241;48.452;9.216;2022-07-06T03:29:08;14.60;99.90
8408;DHT22;4241;48.452;9.216;2022-07-06T03:31:35;14.80;99.90
8408;DHT22;4241;48.452;9.216;2022-07-06T03:34:02;14.80;99.90
8408;DHT22;4241;48.452;9.216;2022-07-06T03:36:30;14.80;99.90
8408;DHT22;4241;48.452;9.216;2022-07-06T03:38:57;14.70;99.90
8408;DHT22;4241;48.452;9.216;2022-07-06T03:41:24;14.80;99.90
8408;DHT22;4241;48.452;9.216;2022-07-06T03:43:51;14.80;99.90
8408;DHT22;4241;48.452;9.216;2022-07-06T03:46:17;14.40;99.90
8408;DHT22;4241;48.452;9.216;2022-07-06T03:48:44;14.30;99.90
8408;DHT22;4241;48.452;9.216;2022-07-06T03:51:11;14.20;99.90
8408;DHT22;4241;48.452;9.216;2022-07-06T03:53:39;14.40;99.90
8408;DHT22;4241;48.452;9.216;2022-07-06T03:56:06;14.60;99.90
8408;DHT22;4241;48.452;9.216;2022-07-06T03:58:50;14.70;99.90
8408;DHT22;4241;48.452;9.216;2022-07-06T04:01:17;14.50;99.90
8408;DHT22;4241;48.452;9.216;2022-07-06T04:03:44;14.20;99.90
8408;DHT22;4241;48.452;9.216;2022-07-06T04:06:11;14.30;99.90
8408;DHT22;4241;48.452;9.216;2022-07-06T04:08:39;14.40;99.90
8408;DHT22;4241;48.452;9.216;2022-07-06T04:11:06;14.00;99.90
8408;DHT22;4241;48.452;9.216;2022-07-06T04:13:33;14.00;99.90
8408;DHT22;4241;48.452;9.216;2022-07-06T04:16:00;14.10;99.90
8408;DHT22;4241;48.452;9.216;2022-07-06T04:18:27;13.80;99.90
8408;DHT22;4241;48.452;9.216;2022-07-06T04:20:54;13.90;99.90
8408;DHT22;4241;48.452;9.216;2022-07-06T04:23:22;13.70;99.90
8408;DHT22;4241;48.452;9.216;2022-07-06T04:25:54;15.00;99.90
8408;DHT22;4241;48.452;9.216;2022-07-06T04:28:21;13.80;99.90
8408;DHT22;4241;48.452;9.216;2022-07-06T04:30:47;13.80;99.90
8408;DHT22;4241;48.452;9.216;2022-07-06T04:33:14;13.70;99.90
8408;DHT22;4241;48.452;9.216;2022-07-06T04:35:41;13.90;99.90
8408;DHT22;4241;48.452;9.216;2022-07-06T04:38:08;14.00;99.90
8408;DHT22;4241;48.452;9.216;2022-07-06T04:40:35;14.10;99.90
8408;DHT22;4241;48.452;9.216;2022-07-06T04:43:03;13.80;99.90
8408;DHT22;4241;48.452;9.216;2022-07-06T04:45:30;13.70;99.90
8408;DHT22;4241;48.452;9.216;2022-07-06T04:47:58;13.90;99.90
8408;DHT22;4241;48.452;9.216;2022-07-06T04:50:24;14.00;99.90
8408;DHT22;4241;48.452;9.216;2022-07-06T04:52:51;14.10;99.90
8408;DHT22;4241;48.452;9.216;2022-07-06T04:55:18;14.10;99.90
8408;DHT22;4241;48.452;9.216;2022-07-06T04:57:45;14.30;99.90
8408;DHT22;4241;48.452;9.216;2022-07-06T05:00:14;14.20;99.90
8408;DHT22;4241;48.452;9.216;2022-07-06T05:02:41;14.10;99.90
8408;DHT22;4241;48.452;9.216;2022-07-06T05:05:08;14.40;99.90
8408;DHT22;4241;48.452;9.216;2022-07-06T05:07:36;14.30;99.90
8408;DHT22;4241;48.452;9.216;2022-07-06T05:10:06;14.40;99.90
8408;DHT22;4241;48.452;9.216;2022-07-06T05:12:34;14.40;99.90
8408;DHT22;4241;48.452;9.216;2022-07-06T05:15:01;14.30;99.90
8408;DHT22;4241;48.452;9.216;2022-07-06T05:17:29;14.20;99.90
8408;DHT22;4241;48.452;9.216;2022-07-06T05:19:56;14.30;99.90
8408;DHT22;4241;48.452;9.216;2022-07-06T05:22:23;14.50;99.90
8408;DHT22;4241;48.452;9.216;2022-07-06T05:24:50;14.60;99.90
8408;DHT22;4241;48.452;9.216;2022-07-06T05:27:17;14.70;99.90
8408;DHT22;4241;48.452;9.216;2022-07-06T05:29:44;14.90;99.90
8408;DHT22;4241;48.452;9.216;2022-07-06T05:32:10;15.00;99.90
8408;DHT22;4241;48.452;9.216;2022-07-06T05:34:39;15.10;99.90
8408;DHT22;4241;48.452;9.216;2022-07-06T05:37:06;15.20;99.90
8408;DHT22;4241;48.452;9.216;2022-07-06T05:39:33;15.20;99.90
8408;DHT22;4241;48.452;9.216;2022-07-06T05:41:59;15.20;99.90
8408;DHT22;4241;48.452;9.216;2022-07-06T05:44:26;15.20;99.90
8408;DHT22;4241;48.452;9.216;2022-07-06T05:46:53;15.40;99.90
8408;DHT22;4241;48.452;9.216;2022-07-06T05:49:42;15.30;99.90
8408;DHT22;4241;48.452;9.216;2022-07-06T05:52:26;15.40;99.90
8408;DHT22;4241;48.452;9.216;2022-07-06T05:54:53;15.50;99.90
8408;DHT22;4241;48.452;9.216;2022-07-06T05:57:20;15.70;99.90
8408;DHT22;4241;48.452;9.216;2022-07-06T05:59:47;15.70;99.90
8408;DHT22;4241;48.452;9.216;2022-07-06T06:02:14;15.80;99.90
8408;DHT22;4241;48.452;9.216;2022-07-06T06:04:42;15.80;99.90
8408;DHT22;4241;48.452;9.216;2022-07-06T06:07:09;15.80;99.90
8408;DHT22;4241;48.452;9.216;2022-07-06T06:09:35;16.00;99.90
8408;DHT22;4241;48.452;9.216;2022-07-06T06:12:03;16.10;99.90
8408;DHT22;4241;48.452;9.216;2022-07-06T06:14:30;16.20;99.90
8408;DHT22;4241;48.452;9.216;2022-07-06T06:16:57;16.30;99.90
8408;DHT22;4241;48.452;9.216;2022-07-06T06:19:24;16.50;99.90
8408;DHT22;4241;48.452;9.216;2022-07-06T06:21:52;16.50;99.90
8408;DHT22;4241;48.452;9.216;2022-07-06T06:24:19;16.80;99.90
8408;DHT22;4241;48.452;9.216;2022-07-06T06:26:46;16.60;99.90
8408;DHT22;4241;48.452;9.216;2022-07-06T06:29:13;16.60;99.90
8408;DHT22;4241;48.452;9.216;2022-07-06T06:31:40;16.80;99.90
8408;DHT22;4241;48.452;9.216;2022-07-06T06:34:06;17.00;99.90
8408;DHT22;4241;48.452;9.216;2022-07-06T06:36:33;16.90;99.90
8408;DHT22;4241;48.452;9.216;2022-07-06T06:39:02;17.30;99.90
8408;DHT22;4241;48.452;9.216;2022-07-06T06:41:29;17.40;99.90
8408;DHT22;4241;48.452;9.216;2022-07-06T06:43:55;17.50;99.90
8408;DHT22;4241;48.452;9.216;2022-07-06T06:46:22;17.30;99.90
8408;DHT22;4241;48.452;9.216;2022-07-06T06:48:49;17.70;99.90
8408;DHT22;4241;48.452;9.216;2022-07-06T06:51:16;17.60;99.90
8408;DHT22;4241;48.452;9.216;2022-07-06T06:53:43;17.20;99.90
8408;DHT22;4241;48.452;9.216;2022-07-06T06:56:11;17.70;99.90
8408;DHT22;4241;48.452;9.216;2022-07-06T06:58:47;18.10;99.90
8408;DHT22;4241;48.452;9.216;2022-07-06T07:01:14;18.10;99.90
8408;DHT22;4241;48.452;9.216;2022-07-06T07:03:41;18.20;99.90
8408;DHT22;4241;48.452;9.216;2022-07-06T07:06:08;18.40;99.90
8408;DHT22;4241;48.452;9.216;2022-07-06T07:08:34;18.50;99.90
8408;DHT22;4241;48.452;9.216;2022-07-06T07:11:01;18.80;99.90
8408;DHT22;4241;48.452;9.216;2022-07-06T07:13:29;18.70;99.90
8408;DHT22;4241;48.452;9.216;2022-07-06T07:15:56;18.80;99.90
8408;DHT22;4241;48.452;9.216;2022-07-06T07:18:23;19.00;99.90
8408;DHT22;4241;48.452;9.216;2022-07-06T07:20:50;19.10;99.90
8408;DHT22;4241;48.452;9.216;2022-07-06T07:23:17;19.00;99.90
8408;DHT22;4241;48.452;9.216;2022-07-06T07:25:44;19.00;99.90
8408;DHT22;4241;48.452;9.216;2022-07-06T07:28:11;19.10;99.90
8408;DHT22;4241;48.452;9.216;2022-07-06T07:30:39;19.50;99.90
8408;DHT22;4241;48.452;9.216;2022-07-06T07:33:06;19.70;99.90
8408;DHT22;4241;48.452;9.216;2022-07-06T07:35:33;19.50;99.90
8408;DHT22;4241;48.452;9.216;2022-07-06T07:38:00;19.70;99.90
8408;DHT22;4241;48.452;9.216;2022-07-06T07:40:27;19.10;99.90
8408;DHT22;4241;48.452;9.216;2022-07-06T07:42:53;19.00;99.90
8408;DHT22;4241;48.452;9.216;2022-07-06T07:45:20;19.50;99.90
8408;DHT22;4241;48.452;9.216;2022-07-06T07:47:48;19.90;99.90
8408;DHT22;4241;48.452;9.216;2022-07-06T07:50:15;20.10;99.90
8408;DHT22;4241;48.452;9.216;2022-07-06T07:52:43;20.10;99.90
8408;DHT22;4241;48.452;9.216;2022-07-06T07:55:10;19.70;99.90
8408;DHT22;4241;48.452;9.216;2022-07-06T07:57:37;19.90;99.90
8408;DHT22;4241;48.452;9.216;2022-07-06T08:00:06;20.40;99.90
8408;DHT22;4241;48.452;9.216;2022-07-06T08:02:33;20.60;99.90
8408;DHT22;4241;48.452;9.216;2022-07-06T08:05:01;20.80;99.90
8408;DHT22;4241;48.452;9.216;2022-07-06T08:07:28;21.00;99.90
8408;DHT22;4241;48.452;9.216;2022-07-06T08:09:55;21.20;99.90
8408;DHT22;4241;48.452;9.216;2022-07-06T08:12:21;21.20;99.90
8408;DHT22;4241;48.452;9.216;2022-07-06T08:14:48;21.20;99.90
8408;DHT22;4241;48.452;9.216;2022-07-06T08:17:15;20.90;99.90
8408;DHT22;4241;48.452;9.216;2022-07-06T08:19:42;21.20;99.90
8408;DHT22;4241;48.452;9.216;2022-07-06T08:22:10;21.70;99.90
8408;DHT22;4241;48.452;9.216;2022-07-06T08:24:37;21.40;99.90
8408;DHT22;4241;48.452;9.216;2022-07-06T08:27:04;21.20;99.90
8408;DHT22;4241;48.452;9.216;2022-07-06T08:29:31;21.40;99.90
8408;DHT22;4241;48.452;9.216;2022-07-06T08:31:58;20.80;99.90
8408;DHT22;4241;48.452;9.216;2022-07-06T08:34:25;20.90;99.90
8408;DHT22;4241;48.452;9.216;2022-07-06T08:36:52;21.60;99.90
8408;DHT22;4241;48.452;9.216;2022-07-06T08:39:20;22.20;99.90
8408;DHT22;4241;48.452;9.216;2022-07-06T08:41:48;22.20;99.90
8408;DHT22;4241;48.452;9.216;2022-07-06T08:44:15;22.50;99.90
8408;DHT22;4241;48.452;9.216;2022-07-06T08:46:43;21.80;99.90
8408;DHT22;4241;48.452;9.216;2022-07-06T08:49:13;21.60;99.90
8408;DHT22;4241;48.452;9.216;2022-07-06T08:51:40;21.90;99.90
8408;DHT22;4241;48.452;9.216;2022-07-06T08:54:08;22.10;99.90
8408;DHT22;4241;48.452;9.216;2022-07-06T08:56:37;22.60;99.90
8408;DHT22;4241;48.452;9.216;2022-07-06T08:59:04;22.80;99.90
8408;DHT22;4241;48.452;9.216;2022-07-06T09:01:35;23.10;99.90
8408;DHT22;4241;48.452;9.216;2022-07-06T09:04:03;23.20;99.90
8408;DHT22;4241;48.452;9.216;2022-07-06T09:06:31;23.30;99.90
8408;DHT22;4241;48.452;9.216;2022-07-06T09:09:05;23.10;99.90
8408;DHT22;4241;48.452;9.216;2022-07-06T09:11:31;22.90;99.90
8408;DHT22;4241;48.452;9.216;2022-07-06T09:14:00;23.10;99.90
8408;DHT22;4241;48.452;9.216;2022-07-06T09:16:28;23.30;99.90
8408;DHT22;4241;48.452;9.216;2022-07-06T09:18:56;23.60;99.90
8408;DHT22;4241;48.452;9.216;2022-07-06T09:21:24;23.90;99.90
8408;DHT22;4241;48.452;9.216;2022-07-06T09:23:53;24.00;99.90
8408;DHT22;4241;48.452;9.216;2022-07-06T09:26:21;23.80;99.90
8408;DHT22;4241;48.452;9.216;2022-07-06T09:28:48;24.00;99.90
8408;DHT22;4241;48.452;9.216;2022-07-06T09:31:17;24.20;99.90
8408;DHT22;4241;48.452;9.216;2022-07-06T09:33:54;23.50;99.90
8408;DHT22;4241;48.452;9.216;2022-07-06T09:36:40;23.50;99.90
8408;DHT22;4241;48.452;9.216;2022-07-06T09:39:18;23.60;99.90
8408;DHT22;4241;48.452;9.216;2022-07-06T09:41:45;24.10;99.90
8408;DHT22;4241;48.452;9.216;2022-07-06T09:44:12;24.60;99.90
8408;DHT22;4241;48.452;9.216;2022-07-06T09:46:41;24.60;99.90
8408;DHT22;4241;48.452;9.216;2022-07-06T09:49:09;24.70;99.90
8408;DHT22;4241;48.452;9.216;2022-07-06T09:51:36;24.50;99.90
8408;DHT22;4241;48.452;9.216;2022-07-06T09:54:07;24.60;99.90
8408;DHT22;4241;48.452;9.216;2022-07-06T09:56:38;24.30;99.90
8408;DHT22;4241;48.452;9.216;2022-07-06T09:59:08;24.50;99.90
8408;DHT22;4241;48.452;9.216;2022-07-06T10:01:35;24.70;99.50
8408;DHT22;4241;48.452;9.216;2022-07-06T10:04:05;24.60;99.90
8408;DHT22;4241;48.452;9.216;2022-07-06T10:06:32;24.00;98.80
8408;DHT22;4241;48.452;9.216;2022-07-06T10:08:59;24.50;99.90
8408;DHT22;4241;48.452;9.216;2022-07-06T10:11:28;25.00;99.70
8408;DHT22;4241;48.452;9.216;2022-07-06T10:13:56;25.40;99.90
8408;DHT22;4241;48.452;9.216;2022-07-06T10:16:25;25.40;99.90
8408;DHT22;4241;48.452;9.216;2022-07-06T10:18:52;24.50;97.30
8408;DHT22;4241;48.452;9.216;2022-07-06T10:21:22;25.30;99.00
8408;DHT22;4241;48.452;9.216;2022-07-06T10:23:49;25.40;99.90
8408;DHT22;4241;48.452;9.216;2022-07-06T10:26:17;24.60;96.20
8408;DHT22;4241;48.452;9.216;2022-07-06T10:28:44;24.20;99.90
8408;DHT22;4241;48.452;9.216;2022-07-06T10:31:13;23.80;99.90
8408;DHT22;4241;48.452;9.216;2022-07-06T10:33:41;23.80;99.90
8408;DHT22;4241;48.452;9.216;2022-07-06T10:36:09;24.60;99.90
8408;DHT22;4241;48.452;9.216;2022-07-06T10:38:38;25.30;99.10
8408;DHT22;4241;48.452;9.216;2022-07-06T10:41:06;25.80;99.20
8408;DHT22;4241;48.452;9.216;2022-07-06T10:43:34;25.50;99.90
8408;DHT22;4241;48.452;9.216;2022-07-06T10:46:06;24.90;98.50
8408;DHT22;4241;48.452;9.216;2022-07-06T10:48:37;25.40;97.80
8408;DHT22;4241;48.452;9.216;2022-07-06T10:51:04;25.00;95.10
8408;DHT22;4241;48.452;9.216;2022-07-06T10:53:33;25.30;99.90
8408;DHT22;4241;48.452;9.216;2022-07-06T10:56:03;26.10;99.00
8408;DHT22;4241;48.452;9.216;2022-07-06T10:58:46;26.10;99.90
8408;DHT22;4241;48.452;9.216;2022-07-06T11:01:17;24.90;94.30
8408;DHT22;4241;48.452;9.216;2022-07-06T11:03:45;25.70;99.90
8408;DHT22;4241;48.452;9.216;2022-07-06T11:06:17;25.40;99.90
8408;DHT22;4241;48.452;9.216;2022-07-06T11:08:49;24.80;99.90
8408;DHT22;4241;48.452;9.216;2022-07-06T11:11:20;24.30;95.30
8408;DHT22;4241;48.452;9.216;2022-07-06T11:13:58;24.50;99.90
8408;DHT22;4241;48.452;9.216;2022-07-06T11:16:28;24.50;95.60
8408;DHT22;4241;48.452;9.216;2022-07-06T11:19:01;25.20;97.70
8408;DHT22;4241;48.452;9.216;2022-07-06T11:21:39;25.20;99.90
8408;DHT22;4241;48.452;9.216;2022-07-06T11:24:08;25.30;95.60
8408;DHT22;4241;48.452;9.216;2022-07-06T11:26:37;24.90;94.60
8408;DHT22;4241;48.452;9.216;2022-07-06T11:29:05;25.30;97.50
8408;DHT22;4241;48.452;9.216;2022-07-06T11:31:34;25.20;99.90
8408;DHT22;4241;48.452;9.216;2022-07-06T11:34:01;24.70;95.10
8408;DHT22;4241;48.452;9.216;2022-07-06T11:36:28;24.30;99.90
8408;DHT22;4241;48.452;9.216;2022-07-06T11:38:55;23.90;99.90
8408;DHT22;4241;48.452;9.216;2022-07-06T11:41:22;24.50;99.90
8408;DHT22;4241;48.452;9.216;2022-07-06T11:43:50;25.30;98.30
8408;DHT22;4241;48.452;9.216;2022-07-06T11:46:28;26.00;95.90
8408;DHT22;4241;48.452;9.216;2022-07-06T11:48:56;26.20;95.40
8408;DHT22;4241;48.452;9.216;2022-07-06T11:51:25;26.10;93.00
8408;DHT22;4241;48.452;9.216;2022-07-06T11:53:53;26.10;95.50
8408;DHT22;4241;48.452;9.216;2022-07-06T11:56:21;26.50;97.90
8408;DHT22;4241;48.452;9.216;2022-07-06T11:58:53;27.10;93.00
8408;DHT22;4241;48.452;9.216;2022-07-06T12:01:21;27.30;90.90
8408;DHT22;4241;48.452;9.216;2022-07-06T12:03:49;27.40;95.90
8408;DHT22;4241;48.452;9.216;2022-07-06T12:06:18;27.60;88.30
8408;DHT22;4241;48.452;9.216;2022-07-06T12:08:48;26.90;93.80
8408;DHT22;4241;48.452;9.216;2022-07-06T12:11:23;26.90;90.70
8408;DHT22;4241;48.452;9.216;2022-07-06T12:13:52;27.60;93.90
8408;DHT22;4241;48.452;9.216;2022-07-06T12:16:20;27.50;92.70
8408;DHT22;4241;48.452;9.216;2022-07-06T12:18:50;27.30;93.20
8408;DHT22;4241;48.452;9.216;2022-07-06T12:21:19;27.10;90.00
8408;DHT22;4241;48.452;9.216;2022-07-06T12:23:48;27.20;93.90
8408;DHT22;4241;48.452;9.216;2022-07-06T12:26:17;27.50;91.40
8408;DHT22;4241;48.452;9.216;2022-07-06T12:28:44;27.60;94.30
8408;DHT22;4241;48.452;9.216;2022-07-06T12:31:31;28.00;94.40
8408;DHT22;4241;48.452;9.216;2022-07-06T12:33:58;27.90;95.40
8408;DHT22;4241;48.452;9.216;2022-07-06T12:36:25;26.80;91.60
8408;DHT22;4241;48.452;9.216;2022-07-06T12:38:52;26.10;94.60
8408;DHT22;4241;48.452;9.216;2022-07-06T12:41:30;25.40;92.20
8408;DHT22;4241;48.452;9.216;2022-07-06T12:44:06;25.70;94.80
8408;DHT22;4241;48.452;9.216;2022-07-06T12:46:36;25.40;93.20
8408;DHT22;4241;48.452;9.216;2022-07-06T12:49:11;26.40;98.10
8408;DHT22;4241;48.452;9.216;2022-07-06T12:51:55;25.80;91.50
8408;DHT22;4241;48.452;9.216;2022-07-06T12:54:24;26.70;94.50
8408;DHT22;4241;48.452;9.216;2022-07-06T12:57:00;26.70;93.60
8408;DHT22;4241;48.452;9.216;2022-07-06T12:59:27;26.50;97.40
8408;DHT22;4241;48.452;9.216;2022-07-06T13:01:56;27.10;93.30
8408;DHT22;4241;48.452;9.216;2022-07-06T13:04:23;26.30;92.50
8408;DHT22;4241;48.452;9.216;2022-07-06T13:06:50;26.20;96.90
8408;DHT22;4241;48.452;9.216;2022-07-06T13:09:17;26.80;99.00
8408;DHT22;4241;48.452;9.216;2022-07-06T13:11:44;27.00;97.70
8408;DHT22;4241;48.452;9.216;2022-07-06T13:14:12;26.90;96.50
8408;DHT22;4241;48.452;9.216;2022-07-06T13:16:39;25.20;95.00
8408;DHT22;4241;48.452;9.216;2022-07-06T13:19:07;25.90;99.90
8408;DHT22;4241;48.452;9.216;2022-07-06T13:21:34;26.80;96.80
8408;DHT22;4241;48.452;9.216;2022-07-06T13:24:01;27.10;98.20
8408;DHT22;4241;48.452;9.216;2022-07-06T13:26:28;27.10;94.60
8408;DHT22;4241;48.452;9.216;2022-07-06T13:28:59;26.60;96.30
8408;DHT22;4241;48.452;9.216;2022-07-06T13:31:26;26.80;96.50
8408;DHT22;4241;48.452;9.216;2022-07-06T13:33:53;27.40;99.60
8408;DHT22;4241;48.452;9.216;2022-07-06T13:36:21;27.30;96.40
8408;DHT22;4241;48.452;9.216;2022-07-06T13:38:49;27.60;97.80
8408;DHT22;4241;48.452;9.216;2022-07-06T13:41:15;26.90;97.80
8408;DHT22;4241;48.452;9.216;2022-07-06T13:43:42;27.20;95.50
8408;DHT22;4241;48.452;9.216;2022-07-06T13:46:09;26.90;96.70
8408;DHT22;4241;48.452;9.216;2022-07-06T13:48:37;28.00;99.00
8408;DHT22;4241;48.452;9.216;2022-07-06T13:51:04;27.50;95.20
8408;DHT22;4241;48.452;9.216;2022-07-06T13:53:32;27.30;96.50
8408;DHT22;4241;48.452;9.216;2022-07-06T13:55:59;26.30;99.90
8408;DHT22;4241;48.452;9.216;2022-07-06T13:58:26;26.50;99.90
8408;DHT22;4241;48.452;9.216;2022-07-06T14:00:53;26.70;98.50
8408;DHT22;4241;48.452;9.216;2022-07-06T14:03:20;26.10;97.60
8408;DHT22;4241;48.452;9.216;2022-07-06T14:05:53;25.70;96.80
8408;DHT22;4241;48.452;9.216;2022-07-06T14:08:20;25.70;99.60
8408;DHT22;4241;48.452;9.216;2022-07-06T14:10:48;26.50;95.70
8408;DHT22;4241;48.452;9.216;2022-07-06T14:13:15;25.60;99.90
8408;DHT22;4241;48.452;9.216;2022-07-06T14:15:42;25.20;99.90
8408;DHT22;4241;48.452;9.216;2022-07-06T14:18:09;25.60;99.90
8408;DHT22;4241;48.452;9.216;2022-07-06T14:20:36;25.20;98.70
8408;DHT22;4241;48.452;9.216;2022-07-06T14:23:03;24.60;99.90
8408;DHT22;4241;48.452;9.216;2022-07-06T14:25:30;25.30;99.90
8408;DHT22;4241;48.452;9.216;2022-07-06T14:27:59;25.30;99.90
8408;DHT22;4241;48.452;9.216;2022-07-06T14:30:30;24.80;99.90
8408;DHT22;4241;48.452;9.216;2022-07-06T14:32:57;24.80;99.90
8408;DHT22;4241;48.452;9.216;2022-07-06T14:35:24;25.40;99.90
8408;DHT22;4241;48.452;9.216;2022-07-06T14:37:51;25.50;98.90
8408;DHT22;4241;48.452;9.216;2022-07-06T14:40:18;25.60;99.90
8408;DHT22;4241;48.452;9.216;2022-07-06T14:42:45;25.50;99.90
8408;DHT22;4241;48.452;9.216;2022-07-06T14:45:13;25.80;99.90
8408;DHT22;4241;48.452;9.216;2022-07-06T14:47:40;26.30;99.90
8408;DHT22;4241;48.452;9.216;2022-07-06T14:50:07;26.80;98.30
8408;DHT22;4241;48.452;9.216;2022-07-06T14:52:34;26.70;99.70
8408;DHT22;4241;48.452;9.216;2022-07-06T14:55:01;26.40;99.00
8408;DHT22;4241;48.452;9.216;2022-07-06T14:57:28;26.70;99.30
8408;DHT22;4241;48.452;9.216;2022-07-06T14:59:55;26.50;97.70
8408;DHT22;4241;48.452;9.216;2022-07-06T15:02:23;26.20;97.50
8408;DHT22;4241;48.452;9.216;2022-07-06T15:04:50;25.60;99.90
8408;DHT22;4241;48.452;9.216;2022-07-06T15:07:17;25.80;99.90
8408;DHT22;4241;48.452;9.216;2022-07-06T15:09:44;26.60;99.40
8408;DHT22;4241;48.452;9.216;2022-07-06T15:12:11;26.90;98.50
8408;DHT22;4241;48.452;9.216;2022-07-06T15:14:38;26.40;97.80
8408;DHT22;4241;48.452;9.216;2022-07-06T15:17:05;25.50;96.30
8408;DHT22;4241;48.452;9.216;2022-07-06T15:19:34;24.90;99.90
8408;DHT22;4241;48.452;9.216;2022-07-06T15:22:01;25.60;98.10
8408;DHT22;4241;48.452;9.216;2022-07-06T15:24:28;24.60;98.70
8408;DHT22;4241;48.452;9.216;2022-07-06T15:26:55;25.30;99.90
8408;DHT22;4241;48.452;9.216;2022-07-06T15:29:22;26.30;99.90
8408;DHT22;4241;48.452;9.216;2022-07-06T15:31:48;24.90;97.70
8408;DHT22;4241;48.452;9.216;2022-07-06T15:34:15;23.80;99.90
8408;DHT22;4241;48.452;9.216;2022-07-06T15:36:44;24.30;99.90
8408;DHT22;4241;48.452;9.216;2022-07-06T15:39:11;24.90;99.90
8408;DHT22;4241;48.452;9.216;2022-07-06T15:41:38;24.00;99.90
8408;DHT22;4241;48.452;9.216;2022-07-06T15:44:05;24.10;99.90
8408;DHT22;4241;48.452;9.216;2022-07-06T15:46:32;24.60;99.90
8408;DHT22;4241;48.452;9.216;2022-07-06T15:48:59;24.90;99.90
8408;DHT22;4241;48.452;9.216;2022-07-06T15:51:26;24.40;99.70
8408;DHT22;4241;48.452;9.216;2022-07-06T15:53:54;24.20;99.90
8408;DHT22;4241;48.452;9.216;2022-07-06T15:56:22;24.00;99.90
8408;DHT22;4241;48.452;9.216;2022-07-06T15:58:49;23.30;99.30
8408;DHT22;4241;48.452;9.216;2022-07-06T16:01:16;23.00;99.90
8408;DHT22;4241;48.452;9.216;2022-07-06T16:03:43;23.30;99.90
8408;DHT22;4241;48.452;9.216;2022-07-06T16:06:09;23.90;99.90
8408;DHT22;4241;48.452;9.216;2022-07-06T16:08:37;24.60;99.70